sensor_id;sensor_type;location;lat;lon;timestamp;pressure;altitude;pressure_sealevel;temperature;humidity
39223;BME280;24936;46.328;11.026;2023-02-19T00:00:30;95008.81;;;0.21;88.98
39223;BME280;24936;46.328;11.026;2023-02-19T00:02:56;95008.13;;;-0.25;89.30
39223;BME280;24936;46.328;11.026;2023-02-19T00:05:22;95006.34;;;-0.45;89.11
39223;BME280;24936;46.328;11.026;2023-02-19T00:07:48;95003.66;;;0.21;89.82
39223;BME280;24936;46.328;11.026;2023-02-19T00:10:13;95007.91;;;0.02;89.51
39223;BME280;24936;46.328;11.026;2023-02-19T00:12:39;95003.38;;;-0.14;89.70
39223;BME280;24936;46.328;11.026;2023-02-19T00:15:04;95000.50;;;-0.51;89.68
39223;BME280;24936;46.328;11.026;2023-02-19T00:17:30;95003.03;;;-0.71;90.27
39223;BME280;24936;46.328;11.026;2023-02-19T00:19:56;95006.69;;;-0.33;90.56
39223;BME280;24936;46.328;11.026;2023-02-19T00:22:21;95003.00;;;0.16;90.05
39223;BME280;24936;46.328;11.026;2023-02-19T00:24:47;95005.94;;;-0.14;89.34
39223;BME280;24936;46.328;11.026;2023-02-19T00:27:13;94997.97;;;-0.52;89.85
39223;BME280;24936;46.328;11.026;2023-02-19T00:29:38;94991.00;;;-0.72;90.15
39223;BME280;24936;46.328;11.026;2023-02-19T00:32:03;94991.72;;;-0.69;90.41
39223;BME280;24936;46.328;11.026;2023-02-19T00:34:29;94992.53;;;-0.68;90.79
39223;BME280;24936;46.328;11.026;2023-02-19T00:36:54;94996.63;;;-0.63;90.63
39223;BME280;24936;46.328;11.026;2023-02-19T00:39:20;94987.53;;;-0.73;91.04
39223;BME280;24936;46.328;11.026;2023-02-19T00:41:45;94992.31;;;-0.40;91.16
39223;BME280;24936;46.328;11.026;2023-02-19T00:44:11;94996.88;;;-0.69;91.01
39223;BME280;24936;46.328;11.026;2023-02-19T00:46:42;94987.84;;;-0.81;91.49
39223;BME280;24936;46.328;11.026;2023-02-19T00:49:14;94993.28;;;-0.88;91.44
39223;BME280;24936;46.328;11.026;2023-02-19T00:51:40;94992.75;;;-0.97;91.63
39223;BME280;24936;46.328;11.026;2023-02-19T00:54:05;94991.47;;;-0.85;92.04
39223;BME280;24936;46.328;11.026;2023-02-19T00:56:31;95002.38;;;-1.00;92.09
39223;BME280;24936;46.328;11.026;2023-02-19T00:58:56;94983.53;;;-1.04;91.62
39223;BME280;24936;46.328;11.026;2023-02-19T01:01:22;94994.91;;;-1.08;92.07
39223;BME280;24936;46.328;11.026;2023-02-19T01:03:48;94986.22;;;-0.83;91.63
39223;BME280;24936;46.328;11.026;2023-02-19T01:06:15;94992.44;;;-0.43;91.49
39223;BME280;24936;46.328;11.026;2023-02-19T01:08:41;94987.25;;;-0.43;90.76
39223;BME280;24936;46.328;11.026;2023-02-19T01:11:07;94990.41;;;-0.57;90.78
39223;BME280;24936;46.328;11.026;2023-02-19T01:13:34;94989.19;;;-0.94;90.35
39223;BME280;24936;46.328;11.026;2023-02-19T01:16:10;94989.94;;;-1.14;91.33
39223;BME280;24936;46.328;11.026;2023-02-19T01:18:37;94984.13;;;-1.19;91.75
39223;BME280;24936;46.328;11.026;2023-02-19T01:21:12;94984.84;;;-1.16;92.12
39223;BME280;24936;46.328;11.026;2023-02-19T01:23:38;94985.47;;;-1.33;92.31
39223;BME280;24936;46.328;11.026;2023-02-19T01:26:08;94981.84;;;-1.52;92.57
39223;BME280;24936;46.328;11.026;2023-02-19T01:28:35;94982.84;;;-1.57;92.90
39223;BME280;24936;46.328;11.026;2023-02-19T01:31:06;94987.91;;;-1.54;93.08
39223;BME280;24936;46.328;11.026;2023-02-19T01:33:32;94980.16;;;-1.54;93.47
39223;BME280;24936;46.328;11.026;2023-02-19T01:35:58;94975.00;;;-1.30;93.57
39223;BME280;24936;46.328;11.026;2023-02-19T01:38:24;94967.22;;;-1.28;93.39
39223;BME280;24936;46.328;11.026;2023-02-19T01:40:57;94979.16;;;-1.49;93.21
39223;BME280;24936;46.328;11.026;2023-02-19T01:43:23;94961.84;;;-1.00;93.17
39223;BME280;24936;46.328;11.026;2023-02-19T01:45:48;94969.16;;;-1.11;93.06
39223;BME280;24936;46.328;11.026;2023-02-19T01:50:54;94959.66;;;-1.58;93.19
39223;BME280;24936;46.328;11.026;2023-02-19T01:53:23;94959.25;;;-1.71;93.51
39223;BME280;24936;46.328;11.026;2023-02-19T01:55:55;94950.16;;;-1.81;93.65
39223;BME280;24936;46.328;11.026;2023-02-19T01:58:23;94960.00;;;-1.67;94.03
39223;BME280;24936;46.328;11.026;2023-02-19T02:00:50;94960.13;;;-1.47;94.13
39223;BME280;24936;46.328;11.026;2023-02-19T02:03:17;94953.53;;;-1.79;93.94
39223;BME280;24936;46.328;11.026;2023-02-19T02:05:57;94946.88;;;-1.61;94.20
39223;BME280;24936;46.328;11.026;2023-02-19T02:08:25;94936.47;;;-1.60;94.24
39223;BME280;24936;46.328;11.026;2023-02-19T02:11:09;94951.97;;;-1.60;93.93
39223;BME280;24936;46.328;11.026;2023-02-19T02:13:35;94941.63;;;-1.60;94.22
39223;BME280;24936;46.328;11.026;2023-02-19T02:18:40;94927.81;;;-1.82;94.40
39223;BME280;24936;46.328;11.026;2023-02-19T02:24:16;94927.63;;;-1.52;94.05
39223;BME280;24936;46.328;11.026;2023-02-19T02:27:02;94920.78;;;-1.54;93.65
39223;BME280;24936;46.328;11.026;2023-02-19T02:32:32;94913.47;;;-1.42;92.98
39223;BME280;24936;46.328;11.026;2023-02-19T02:35:10;94921.56;;;-1.51;93.39
39223;BME280;24936;46.328;11.026;2023-02-19T02:37:38;94913.00;;;-1.30;93.51
39223;BME280;24936;46.328;11.026;2023-02-19T02:40:06;94913.88;;;-1.29;93.46
39223;BME280;24936;46.328;11.026;2023-02-19T02:42:33;94914.59;;;-1.26;93.42
39223;BME280;24936;46.328;11.026;2023-02-19T02:45:33;94907.50;;;-1.20;93.06
39223;BME280;24936;46.328;11.026;2023-02-19T02:50:39;94904.94;;;-1.44;93.59
39223;BME280;24936;46.328;11.026;2023-02-19T02:53:16;94889.94;;;-1.34;93.76
39223;BME280;24936;46.328;11.026;2023-02-19T02:56:02;94907.63;;;-1.71;93.34
39223;BME280;24936;46.328;11.026;2023-02-19T02:58:28;94896.13;;;-1.86;93.68
39223;BME280;24936;46.328;11.026;2023-02-19T03:01:11;94897.84;;;-1.87;93.57
39223;BME280;24936;46.328;11.026;2023-02-19T03:06:48;94890.09;;;-1.87;94.01
39223;BME280;24936;46.328;11.026;2023-02-19T03:09:21;94888.38;;;-1.86;94.19
39223;BME280;24936;46.328;11.026;2023-02-19T03:11:56;94887.31;;;-1.80;94.00
39223;BME280;24936;46.328;11.026;2023-02-19T03:14:45;94887.59;;;-1.64;94.03
39223;BME280;24936;46.328;11.026;2023-02-19T03:17:48;94897.63;;;-1.57;93.79
39223;BME280;24936;46.328;11.026;2023-02-19T03:20:35;94891.44;;;-1.29;93.34
39223;BME280;24936;46.328;11.026;2023-02-19T03:23:05;94893.09;;;-1.04;92.60
39223;BME280;24936;46.328;11.026;2023-02-19T03:25:32;94888.28;;;-0.91;92.37
39223;BME280;24936;46.328;11.026;2023-02-19T03:28:21;94888.84;;;-1.05;92.30
39223;BME280;24936;46.328;11.026;2023-02-19T03:31:10;94886.88;;;-0.98;92.67
39223;BME280;24936;46.328;11.026;2023-02-19T03:33:38;94881.56;;;-0.95;92.19
39223;BME280;24936;46.328;11.026;2023-02-19T03:36:06;94891.66;;;-0.89;92.37
39223;BME280;24936;46.328;11.026;2023-02-19T03:38:42;94886.13;;;-0.80;92.36
39223;BME280;24936;46.328;11.026;2023-02-19T03:47:13;94887.16;;;-0.41;91.69
39223;BME280;24936;46.328;11.026;2023-02-19T03:53:10;94880.69;;;-0.31;91.07
39223;BME280;24936;46.328;11.026;2023-02-19T03:58:56;94877.84;;;-0.04;90.13
39223;BME280;24936;46.328;11.026;2023-02-19T04:01:51;94894.59;;;0.08;89.82
39223;BME280;24936;46.328;11.026;2023-02-19T04:04:26;94888.84;;;0.02;90.56
39223;BME280;24936;46.328;11.026;2023-02-19T04:06:54;94877.56;;;0.23;90.18
39223;BME280;24936;46.328;11.026;2023-02-19T04:09:22;94877.56;;;0.42;89.39
39223;BME280;24936;46.328;11.026;2023-02-19T04:11:49;94871.88;;;0.55;89.35
39223;BME280;24936;46.328;11.026;2023-02-19T04:14:19;94878.22;;;0.48;89.23
39223;BME280;24936;46.328;11.026;2023-02-19T04:16:50;94880.69;;;0.51;89.65
39223;BME280;24936;46.328;11.026;2023-02-19T04:19:21;94883.31;;;0.49;89.99
39223;BME280;24936;46.328;11.026;2023-02-19T04:21:49;94885.16;;;0.47;90.25
39223;BME280;24936;46.328;11.026;2023-02-19T04:24:22;94888.25;;;0.74;90.24
39223;BME280;24936;46.328;11.026;2023-02-19T04:26:49;94881.31;;;0.75;89.75
39223;BME280;24936;46.328;11.026;2023-02-19T04:29:15;94892.03;;;0.86;89.78
39223;BME280;24936;46.328;11.026;2023-02-19T04:31:40;94880.22;;;0.62;89.75
39223;BME280;24936;46.328;11.026;2023-02-19T04:34:05;94877.44;;;0.84;89.29
39223;BME280;24936;46.328;11.026;2023-02-19T04:36:31;94879.22;;;0.83;89.73
39223;BME280;24936;46.328;11.026;2023-02-19T04:38:57;94884.59;;;0.98;89.38
39223;BME280;24936;46.328;11.026;2023-02-19T04:41:23;94876.25;;;0.91;89.56
39223;BME280;24936;46.328;11.026;2023-02-19T04:43:48;94885.59;;;0.95;88.85
39223;BME280;24936;46.328;11.026;2023-02-19T04:46:13;94870.25;;;0.90;89.08
39223;BME280;24936;46.328;11.026;2023-02-19T04:48:39;94861.19;;;0.99;88.68
39223;BME280;24936;46.328;11.026;2023-02-19T04:51:08;94861.53;;;0.91;87.86
39223;BME280;24936;46.328;11.026;2023-02-19T04:53:35;94862.53;;;0.89;87.73
39223;BME280;24936;46.328;11.026;2023-02-19T04:56:14;94862.19;;;0.97;87.48
39223;BME280;24936;46.328;11.026;2023-02-19T04:58:41;94857.75;;;0.99;88.08
39223;BME280;24936;46.328;11.026;2023-02-19T05:01:07;94858.41;;;1.04;87.97
39223;BME280;24936;46.328;11.026;2023-02-19T05:03:33;94846.72;;;1.13;87.56
39223;BME280;24936;46.328;11.026;2023-02-19T05:06:02;94849.94;;;1.18;87.15
39223;BME280;24936;46.328;11.026;2023-02-19T05:08:28;94853.59;;;1.14;87.27
39223;BME280;24936;46.328;11.026;2023-02-19T05:10:56;94857.81;;;1.16;86.97
39223;BME280;24936;46.328;11.026;2023-02-19T05:13:23;94853.53;;;1.15;87.18
39223;BME280;24936;46.328;11.026;2023-02-19T05:16:01;94858.91;;;1.30;86.93
39223;BME280;24936;46.328;11.026;2023-02-19T05:18:27;94853.53;;;1.33;86.38
39223;BME280;24936;46.328;11.026;2023-02-19T05:20:52;94853.41;;;1.36;86.48
39223;BME280;24936;46.328;11.026;2023-02-19T05:23:19;94849.34;;;1.30;86.08
39223;BME280;24936;46.328;11.026;2023-02-19T05:25:45;94850.25;;;1.29;85.53
39223;BME280;24936;46.328;11.026;2023-02-19T05:28:11;94850.56;;;1.41;85.31
39223;BME280;24936;46.328;11.026;2023-02-19T05:33:09;94855.25;;;1.51;84.61
39223;BME280;24936;46.328;11.026;2023-02-19T05:35:45;94851.22;;;1.63;84.25
39223;BME280;24936;46.328;11.026;2023-02-19T05:38:12;94858.22;;;1.61;84.55
39223;BME280;24936;46.328;11.026;2023-02-19T05:40:37;94834.19;;;1.58;85.07
39223;BME280;24936;46.328;11.026;2023-02-19T05:43:03;94825.16;;;1.47;85.15
39223;BME280;24936;46.328;11.026;2023-02-19T05:45:30;94820.50;;;1.72;84.59
39223;BME280;24936;46.328;11.026;2023-02-19T05:47:55;94837.84;;;1.71;84.65
39223;BME280;24936;46.328;11.026;2023-02-19T05:50:21;94835.78;;;1.60;85.55
39223;BME280;24936;46.328;11.026;2023-02-19T05:52:47;94831.13;;;1.67;85.17
39223;BME280;24936;46.328;11.026;2023-02-19T05:55:12;94842.28;;;1.87;85.18
39223;BME280;24936;46.328;11.026;2023-02-19T05:57:41;94844.41;;;1.78;85.33
39223;BME280;24936;46.328;11.026;2023-02-19T06:00:12;94827.16;;;1.77;85.50
39223;BME280;24936;46.328;11.026;2023-02-19T06:02:38;94823.06;;;1.73;86.25
39223;BME280;24936;46.328;11.026;2023-02-19T06:05:03;94815.94;;;1.77;86.12
39223;BME280;24936;46.328;11.026;2023-02-19T06:07:30;94817.16;;;1.87;86.01
39223;BME280;24936;46.328;11.026;2023-02-19T06:09:55;94827.13;;;1.95;85.85
39223;BME280;24936;46.328;11.026;2023-02-19T06:12:21;94807.19;;;1.95;86.10
39223;BME280;24936;46.328;11.026;2023-02-19T06:14:47;94807.31;;;2.10;85.68
39223;BME280;24936;46.328;11.026;2023-02-19T06:17:13;94808.84;;;2.14;85.64
39223;BME280;24936;46.328;11.026;2023-02-19T06:19:38;94818.84;;;2.22;85.46
39223;BME280;24936;46.328;11.026;2023-02-19T06:22:03;94815.63;;;2.17;85.62
39223;BME280;24936;46.328;11.026;2023-02-19T06:24:29;94812.28;;;2.14;85.75
39223;BME280;24936;46.328;11.026;2023-02-19T06:26:54;94817.28;;;2.02;86.05
39223;BME280;24936;46.328;11.026;2023-02-19T06:29:20;94817.06;;;1.89;86.57
39223;BME280;24936;46.328;11.026;2023-02-19T06:31:45;94819.50;;;1.92;86.03
39223;BME280;24936;46.328;11.026;2023-02-19T06:34:10;94817.91;;;1.72;85.65
39223;BME280;24936;46.328;11.026;2023-02-19T06:36:36;94824.78;;;1.73;85.01
39223;BME280;24936;46.328;11.026;2023-02-19T06:39:03;94830.75;;;1.75;84.64
39223;BME280;24936;46.328;11.026;2023-02-19T06:41:29;94833.13;;;1.44;84.14
39223;BME280;24936;46.328;11.026;2023-02-19T06:43:56;94832.78;;;1.33;84.77
39223;BME280;24936;46.328;11.026;2023-02-19T06:46:21;94840.88;;;1.27;84.31
39223;BME280;24936;46.328;11.026;2023-02-19T06:48:47;94830.78;;;1.20;84.84
39223;BME280;24936;46.328;11.026;2023-02-19T06:51:15;94840.44;;;1.36;84.82
39223;BME280;24936;46.328;11.026;2023-02-19T06:53:43;94847.84;;;1.44;83.93
39223;BME280;24936;46.328;11.026;2023-02-19T06:56:27;94839.22;;;1.43;84.29
39223;BME280;24936;46.328;11.026;2023-02-19T06:58:54;94856.31;;;1.47;84.92
39223;BME280;24936;46.328;11.026;2023-02-19T07:01:21;94850.03;;;1.34;84.73
39223;BME280;24936;46.328;11.026;2023-02-19T07:03:47;94859.22;;;1.41;84.46
39223;BME280;24936;46.328;11.026;2023-02-19T07:06:12;94860.28;;;1.37;84.24
39223;BME280;24936;46.328;11.026;2023-02-19T07:08:37;94858.72;;;1.33;84.59
39223;BME280;24936;46.328;11.026;2023-02-19T07:11:03;94860.91;;;1.42;84.49
39223;BME280;24936;46.328;11.026;2023-02-19T07:13:28;94860.13;;;1.40;84.23
39223;BME280;24936;46.328;11.026;2023-02-19T07:15:59;94851.50;;;1.40;84.26
39223;BME280;24936;46.328;11.026;2023-02-19T07:18:24;94865.47;;;1.37;84.33
39223;BME280;24936;46.328;11.026;2023-02-19T07:20:50;94866.84;;;1.44;84.46
39223;BME280;24936;46.328;11.026;2023-02-19T07:23:15;94871.34;;;1.58;83.70
39223;BME280;24936;46.328;11.026;2023-02-19T07:25:41;94867.63;;;1.64;83.70
39223;BME280;24936;46.328;11.026;2023-02-19T07:28:06;94861.44;;;1.66;83.65
39223;BME280;24936;46.328;11.026;2023-02-19T07:30:32;94864.25;;;1.62;83.73
39223;BME280;24936;46.328;11.026;2023-02-19T07:32:57;94865.88;;;1.64;83.46
39223;BME280;24936;46.328;11.026;2023-02-19T07:35:23;94866.94;;;1.78;83.61
39223;BME280;24936;46.328;11.026;2023-02-19T07:37:48;94864.34;;;1.78;83.09
39223;BME280;24936;46.328;11.026;2023-02-19T07:40:14;94866.78;;;1.63;83.10
39223;BME280;24936;46.328;11.026;2023-02-19T07:42:39;94861.50;;;1.82;81.97
39223;BME280;24936;46.328;11.026;2023-02-19T07:45:05;94877.53;;;2.08;81.45
39223;BME280;24936;46.328;11.026;2023-02-19T07:47:30;94883.63;;;2.25;81.55
39223;BME280;24936;46.328;11.026;2023-02-19T07:49:56;94879.94;;;2.29;80.87
39223;BME280;24936;46.328;11.026;2023-02-19T07:52:21;94873.41;;;2.38;80.78
39223;BME280;24936;46.328;11.026;2023-02-19T07:54:47;94874.25;;;2.38;81.54
39223;BME280;24936;46.328;11.026;2023-02-19T07:57:12;94848.84;;;2.27;82.50
39223;BME280;24936;46.328;11.026;2023-02-19T07:59:38;94851.81;;;2.37;83.01
39223;BME280;24936;46.328;11.026;2023-02-19T08:02:04;94858.69;;;2.54;82.22
39223;BME280;24936;46.328;11.026;2023-02-19T08:04:52;94860.38;;;2.55;82.82
39223;BME280;24936;46.328;11.026;2023-02-19T08:07:17;94848.16;;;2.73;82.81
39223;BME280;24936;46.328;11.026;2023-02-19T08:09:42;94860.56;;;3.00;82.54
39223;BME280;24936;46.328;11.026;2023-02-19T08:12:10;94863.53;;;2.94;82.11
39223;BME280;24936;46.328;11.026;2023-02-19T08:14:53;94860.75;;;2.97;83.22
39223;BME280;24936;46.328;11.026;2023-02-19T08:17:19;94847.25;;;3.06;82.43
39223;BME280;24936;46.328;11.026;2023-02-19T08:19:44;94849.69;;;3.10;82.32
39223;BME280;24936;46.328;11.026;2023-02-19T08:22:10;94839.59;;;3.03;82.64
39223;BME280;24936;46.328;11.026;2023-02-19T08:24:35;94833.16;;;3.11;83.01
39223;BME280;24936;46.328;11.026;2023-02-19T08:27:01;94838.00;;;2.69;81.53
39223;BME280;24936;46.328;11.026;2023-02-19T08:29:27;94854.38;;;2.71;81.75
39223;BME280;24936;46.328;11.026;2023-02-19T08:31:52;94842.84;;;2.43;81.84
39223;BME280;24936;46.328;11.026;2023-02-19T08:34:18;94834.00;;;2.29;81.66
39223;BME280;24936;46.328;11.026;2023-02-19T08:36:43;94848.94;;;2.26;82.35
39223;BME280;24936;46.328;11.026;2023-02-19T08:39:08;94842.06;;;2.25;82.53
39223;BME280;24936;46.328;11.026;2023-02-19T08:41:34;94830.25;;;2.35;82.15
39223;BME280;24936;46.328;11.026;2023-02-19T08:43:59;94845.53;;;2.41;82.15
39223;BME280;24936;46.328;11.026;2023-02-19T08:46:25;94844.94;;;2.52;81.54
39223;BME280;24936;46.328;11.026;2023-02-19T08:48:50;94857.00;;;2.53;81.31
39223;BME280;24936;46.328;11.026;2023-02-19T08:51:16;94854.09;;;2.43;81.21
39223;BME280;24936;46.328;11.026;2023-02-19T08:53:41;94857.66;;;2.41;81.15
39223;BME280;24936;46.328;11.026;2023-02-19T08:56:12;94850.78;;;2.40;81.84
39223;BME280;24936;46.328;11.026;2023-02-19T08:58:38;94851.31;;;2.47;81.65
39223;BME280;24936;46.328;11.026;2023-02-19T09:01:08;94850.28;;;2.33;81.74
39223;BME280;24936;46.328;11.026;2023-02-19T09:03:34;94862.47;;;2.49;81.65
39223;BME280;24936;46.328;11.026;2023-02-19T09:06:00;94848.66;;;2.48;81.26
39223;BME280;24936;46.328;11.026;2023-02-19T09:08:29;94854.78;;;2.63;81.37
39223;BME280;24936;46.328;11.026;2023-02-19T09:10:59;94854.53;;;2.68;80.89
39223;BME280;24936;46.328;11.026;2023-02-19T09:13:25;94851.19;;;2.98;80.71
39223;BME280;24936;46.328;11.026;2023-02-19T09:15:51;94851.00;;;3.17;79.27
39223;BME280;24936;46.328;11.026;2023-02-19T09:18:16;94842.63;;;3.12;79.78
39223;BME280;24936;46.328;11.026;2023-02-19T09:20:41;94838.91;;;3.16;79.74
39223;BME280;24936;46.328;11.026;2023-02-19T09:23:07;94850.25;;;3.31;78.81
39223;BME280;24936;46.328;11.026;2023-02-19T09:25:32;94844.34;;;3.43;78.72
39223;BME280;24936;46.328;11.026;2023-02-19T09:27:58;94833.13;;;3.57;78.14
39223;BME280;24936;46.328;11.026;2023-02-19T09:30:23;94845.44;;;3.70;78.65
39223;BME280;24936;46.328;11.026;2023-02-19T09:32:48;94834.22;;;3.83;78.00
39223;BME280;24936;46.328;11.026;2023-02-19T09:35:14;94832.69;;;4.10;77.36
39223;BME280;24936;46.328;11.026;2023-02-19T09:37:39;94838.44;;;4.15;76.72
39223;BME280;24936;46.328;11.026;2023-02-19T09:40:05;94832.94;;;4.05;77.09
39223;BME280;24936;46.328;11.026;2023-02-19T09:42:31;94828.59;;;4.35;76.69
39223;BME280;24936;46.328;11.026;2023-02-19T09:44:57;94831.41;;;4.46;75.77
39223;BME280;24936;46.328;11.026;2023-02-19T09:47:26;94828.31;;;4.54;76.68
39223;BME280;24936;46.328;11.026;2023-02-19T09:49:59;94822.25;;;4.53;76.13
39223;BME280;24936;46.328;11.026;2023-02-19T09:55:03;94827.28;;;4.56;75.36
39223;BME280;24936;46.328;11.026;2023-02-19T09:57:29;94817.00;;;4.82;74.53
39223;BME280;24936;46.328;11.026;2023-02-19T10:00:19;94806.97;;;4.76;75.21
39223;BME280;24936;46.328;11.026;2023-02-19T10:02:45;94809.56;;;4.76;74.81
39223;BME280;24936;46.328;11.026;2023-02-19T10:05:15;94820.16;;;4.46;75.54
39223;BME280;24936;46.328;11.026;2023-02-19T10:07:44;94819.38;;;4.58;75.55
39223;BME280;24936;46.328;11.026;2023-02-19T10:12:45;94806.81;;;4.92;74.61
39223;BME280;24936;46.328;11.026;2023-02-19T10:15:33;94792.66;;;5.24;73.38
39223;BME280;24936;46.328;11.026;2023-02-19T10:18:02;94798.03;;;5.35;73.30
39223;BME280;24936;46.328;11.026;2023-02-19T10:20:27;94801.22;;;5.26;73.96
39223;BME280;24936;46.328;11.026;2023-02-19T10:23:02;94797.13;;;5.49;73.88
39223;BME280;24936;46.328;11.026;2023-02-19T10:25:29;94788.31;;;5.90;74.44
39223;BME280;24936;46.328;11.026;2023-02-19T10:27:57;94783.53;;;6.10;72.86
39223;BME280;24936;46.328;11.026;2023-02-19T10:30:27;94810.09;;;6.17;72.67
39223;BME280;24936;46.328;11.026;2023-02-19T10:35:49;94800.38;;;6.82;72.19
39223;BME280;24936;46.328;11.026;2023-02-19T10:38:17;94812.97;;;6.64;71.94
39223;BME280;24936;46.328;11.026;2023-02-19T10:40:44;94812.38;;;6.60;72.90
39223;BME280;24936;46.328;11.026;2023-02-19T10:43:20;94791.66;;;6.94;68.81
39223;BME280;24936;46.328;11.026;2023-02-19T10:45:47;94792.47;;;6.70;69.08
39223;BME280;24936;46.328;11.026;2023-02-19T10:48:27;94803.50;;;7.48;68.61
39223;BME280;24936;46.328;11.026;2023-02-19T10:50:55;94791.28;;;8.07;65.98
39223;BME280;24936;46.328;11.026;2023-02-19T10:53:38;94793.28;;;8.15;66.31
39223;BME280;24936;46.328;11.026;2023-02-19T10:58:33;94779.84;;;8.42;65.78
39223;BME280;24936;46.328;11.026;2023-02-19T11:03:47;94789.31;;;8.68;65.76
39223;BME280;24936;46.328;11.026;2023-02-19T11:06:14;94778.78;;;9.34;62.53
39223;BME280;24936;46.328;11.026;2023-02-19T11:08:45;94777.03;;;9.56;63.00
39223;BME280;24936;46.328;11.026;2023-02-19T11:11:23;94772.09;;;9.42;62.64
39223;BME280;24936;46.328;11.026;2023-02-19T11:13:50;94769.19;;;9.01;63.46
39223;BME280;24936;46.328;11.026;2023-02-19T11:16:16;94750.16;;;8.76;64.35
39223;BME280;24936;46.328;11.026;2023-02-19T11:18:42;94745.63;;;9.55;63.38
39223;BME280;24936;46.328;11.026;2023-02-19T11:21:23;94756.66;;;9.16;61.99
39223;BME280;24936;46.328;11.026;2023-02-19T11:23:49;94742.16;;;8.89;63.87
39223;BME280;24936;46.328;11.026;2023-02-19T11:26:23;94743.22;;;8.86;63.76
39223;BME280;24936;46.328;11.026;2023-02-19T11:28:57;94749.22;;;8.77;64.33
39223;BME280;24936;46.328;11.026;2023-02-19T11:31:27;94737.78;;;8.10;65.47
39223;BME280;24936;46.328;11.026;2023-02-19T11:36:27;94708.84;;;11.49;56.95
39223;BME280;24936;46.328;11.026;2023-02-19T11:38:54;94704.44;;;12.54;53.76
39223;BME280;24936;46.328;11.026;2023-02-19T11:50:04;94697.59;;;11.47;56.79
39223;BME280;24936;46.328;11.026;2023-02-19T11:58:28;94667.69;;;13.80;47.90
39223;BME280;24936;46.328;11.026;2023-02-19T12:09:42;94651.38;;;13.66;48.52
39223;BME280;24936;46.328;11.026;2023-02-19T12:15:16;94659.28;;;14.80;47.05
39223;BME280;24936;46.328;11.026;2023-02-19T12:21:10;94646.38;;;14.16;46.50
39223;BME280;24936;46.328;11.026;2023-02-19T12:31:38;94645.38;;;13.56;47.63
39223;BME280;24936;46.328;11.026;2023-02-19T12:42:51;94622.38;;;14.09;48.02
39223;BME280;24936;46.328;11.026;2023-02-19T12:45:23;94619.47;;;13.86;47.11
39223;BME280;24936;46.328;11.026;2023-02-19T12:48:15;94632.53;;;13.25;48.14
39223;BME280;24936;46.328;11.026;2023-02-19T12:50:42;94616.44;;;14.50;46.13
39223;BME280;24936;46.328;11.026;2023-02-19T12:53:37;94600.84;;;14.38;44.57
39223;BME280;24936;46.328;11.026;2023-02-19T12:56:02;94610.75;;;13.67;46.90
39223;BME280;24936;46.328;11.026;2023-02-19T12:58:37;94593.31;;;13.38;49.85
39223;BME280;24936;46.328;11.026;2023-02-19T13:01:05;94601.38;;;12.74;50.88
39223;BME280;24936;46.328;11.026;2023-02-19T13:03:38;94607.50;;;13.37;49.06
39223;BME280;24936;46.328;11.026;2023-02-19T13:08:35;94605.28;;;13.06;49.02
39223;BME280;24936;46.328;11.026;2023-02-19T13:11:09;94592.38;;;13.66;49.56
39223;BME280;24936;46.328;11.026;2023-02-19T13:16:10;94586.09;;;13.40;47.04
39223;BME280;24936;46.328;11.026;2023-02-19T13:18:44;94580.25;;;13.55;47.38
39223;BME280;24936;46.328;11.026;2023-02-19T13:21:15;94578.00;;;13.24;48.11
39223;BME280;24936;46.328;11.026;2023-02-19T13:24:02;94568.91;;;13.97;47.55
39223;BME280;24936;46.328;11.026;2023-02-19T13:29:44;94565.34;;;13.09;50.38
39223;BME280;24936;46.328;11.026;2023-02-19T13:35:27;94546.00;;;13.53;48.91
39223;BME280;24936;46.328;11.026;2023-02-19T13:38:02;94550.66;;;13.33;48.99
39223;BME280;24936;46.328;11.026;2023-02-19T13:42:59;94552.31;;;13.08;50.21
39223;BME280;24936;46.328;11.026;2023-02-19T13:45:40;94560.09;;;13.54;48.38
39223;BME280;24936;46.328;11.026;2023-02-19T13:48:26;94547.03;;;13.87;48.12
39223;BME280;24936;46.328;11.026;2023-02-19T13:53:57;94557.97;;;13.92;47.88
39223;BME280;24936;46.328;11.026;2023-02-19T14:09:43;94538.56;;;13.49;48.77
39223;BME280;24936;46.328;11.026;2023-02-19T14:22:47;94550.41;;;12.64;51.14
39223;BME280;24936;46.328;11.026;2023-02-19T14:28:36;94542.94;;;13.13;49.46
39223;BME280;24936;46.328;11.026;2023-02-19T14:31:31;94535.31;;;12.38;52.13
39223;BME280;24936;46.328;11.026;2023-02-19T14:33:59;94551.16;;;12.38;51.96
39223;BME280;24936;46.328;11.026;2023-02-19T14:36:37;94556.91;;;12.51;52.54
39223;BME280;24936;46.328;11.026;2023-02-19T14:39:26;94542.00;;;11.76;53.94
39223;BME280;24936;46.328;11.026;2023-02-19T14:41:59;94551.88;;;11.65;54.39
39223;BME280;24936;46.328;11.026;2023-02-19T14:44:28;94558.03;;;11.93;53.36
39223;BME280;24936;46.328;11.026;2023-02-19T14:47:13;94560.22;;;11.60;54.24
39223;BME280;24936;46.328;11.026;2023-02-19T14:49:43;94552.28;;;11.70;54.39
39223;BME280;24936;46.328;11.026;2023-02-19T14:52:16;94562.94;;;11.30;54.70
39223;BME280;24936;46.328;11.026;2023-02-19T14:55:00;94557.06;;;11.46;55.18
39223;BME280;24936;46.328;11.026;2023-02-19T14:57:31;94548.66;;;11.33;55.30
39223;BME280;24936;46.328;11.026;2023-02-19T15:00:02;94551.47;;;11.12;55.79
39223;BME280;24936;46.328;11.026;2023-02-19T15:02:30;94555.50;;;10.96;56.66
39223;BME280;24936;46.328;11.026;2023-02-19T15:04:56;94542.31;;;11.16;56.07
39223;BME280;24936;46.328;11.026;2023-02-19T15:07:25;94555.81;;;10.93;56.33
39223;BME280;24936;46.328;11.026;2023-02-19T15:09:56;94560.50;;;10.70;57.22
39223;BME280;24936;46.328;11.026;2023-02-19T15:12:32;94568.69;;;10.67;57.37
39223;BME280;24936;46.328;11.026;2023-02-19T15:15:00;94570.19;;;10.50;57.23
39223;BME280;24936;46.328;11.026;2023-02-19T15:17:31;94575.25;;;10.22;58.36
39223;BME280;24936;46.328;11.026;2023-02-19T15:20:00;94566.06;;;10.06;58.42
39223;BME280;24936;46.328;11.026;2023-02-19T15:22:28;94564.66;;;10.02;59.38
39223;BME280;24936;46.328;11.026;2023-02-19T15:24:59;94557.81;;;9.80;59.36